sensor_id;sensor_type;location;lat;lon;timestamp;P1;durP1;ratioP1;P2;durP2;ratioP2
64099;SDS011;50385;61.766;38.054;2023-07-08T00:02:11;4.93;;;2.60;;
64099;SDS011;50385;61.766;38.054;2023-07-08T00:04:39;3.60;;;2.60;;
64099;SDS011;50385;61.766;38.054;2023-07-08T00:07:09;4.53;;;2.88;;
64099;SDS011;50385;61.766;38.054;2023-07-08T00:09:38;4.35;;;3.15;;
64099;SDS011;50385;61.766;38.054;2023-07-08T00:12:08;4.57;;;2.72;;
64099;SDS011;50385;61.766;38.054;2023-07-08T00:14:37;5.80;;;3.10;;
64099;SDS011;50385;61.766;38.054;2023-07-08T00:17:08;3.80;;;2.88;;
64099;SDS011;50385;61.766;38.054;2023-07-08T00:19:37;4.25;;;2.85;;
64099;SDS011;50385;61.766;38.054;2023-07-08T00:22:22;4.28;;;2.90;;
64099;SDS011;50385;61.766;38.054;2023-07-08T00:24:51;5.63;;;2.83;;
64099;SDS011;50385;61.766;38.054;2023-07-08T00:27:18;3.25;;;2.60;;
64099;SDS011;50385;61.766;38.054;2023-07-08T00:29:45;4.28;;;3.08;;
64099;SDS011;50385;61.766;38.054;2023-07-08T00:32:12;4.72;;;3.33;;
64099;SDS011;50385;61.766;38.054;2023-07-08T00:34:41;9.10;;;3.42;;
64099;SDS011;50385;61.766;38.054;2023-07-08T00:37:10;6.43;;;3.15;;
64099;SDS011;50385;61.766;38.054;2023-07-08T00:39:38;10.95;;;3.92;;
64099;SDS011;50385;61.766;38.054;2023-07-08T00:42:18;6.75;;;4.90;;
64099;SDS011;50385;61.766;38.054;2023-07-08T00:44:46;10.82;;;3.10;;
64099;SDS011;50385;61.766;38.054;2023-07-08T00:47:14;6.30;;;3.30;;
64099;SDS011;50385;61.766;38.054;2023-07-08T00:52:24;6.85;;;3.35;;
64099;SDS011;50385;61.766;38.054;2023-07-08T00:54:56;6.57;;;3.35;;
64099;SDS011;50385;61.766;38.054;2023-07-08T00:57:30;4.82;;;3.17;;
64099;SDS011;50385;61.766;38.054;2023-07-08T01:00:02;5.25;;;3.42;;
64099;SDS011;50385;61.766;38.054;2023-07-08T01:02:32;6.20;;;3.45;;
64099;SDS011;50385;61.766;38.054;2023-07-08T01:05:04;8.13;;;3.28;;
64099;SDS011;50385;61.766;38.054;2023-07-08T01:07:32;5.95;;;3.22;;
64099;SDS011;50385;61.766;38.054;2023-07-08T01:10:03;4.80;;;3.40;;
64099;SDS011;50385;61.766;38.054;2023-07-08T01:12:37;4.85;;;3.20;;
64099;SDS011;50385;61.766;38.054;2023-07-08T01:15:09;11.00;;;3.47;;
64099;SDS011;50385;61.766;38.054;2023-07-08T01:17:36;5.38;;;3.60;;
64099;SDS011;50385;61.766;38.054;2023-07-08T01:20:04;3.67;;;3.22;;
64099;SDS011;50385;61.766;38.054;2023-07-08T01:22:35;4.35;;;3.13;;
64099;SDS011;50385;61.766;38.054;2023-07-08T01:25:03;4.95;;;3.53;;
64099;SDS011;50385;61.766;38.054;2023-07-08T01:27:35;5.28;;;3.53;;
64099;SDS011;50385;61.766;38.054;2023-07-08T01:30:05;12.77;;;3.90;;
64099;SDS011;50385;61.766;38.054;2023-07-08T01:32:33;7.55;;;3.58;;
64099;SDS011;50385;61.766;38.054;2023-07-08T01:35:01;6.45;;;3.45;;
64099;SDS011;50385;61.766;38.054;2023-07-08T01:37:34;6.45;;;3.20;;
64099;SDS011;50385;61.766;38.054;2023-07-08T01:40:17;7.45;;;3.38;;
64099;SDS011;50385;61.766;38.054;2023-07-08T01:42:53;5.43;;;3.72;;
64099;SDS011;50385;61.766;38.054;2023-07-08T01:45:21;5.35;;;3.40;;
64099;SDS011;50385;61.766;38.054;2023-07-08T01:47:53;5.72;;;3.33;;
64099;SDS011;50385;61.766;38.054;2023-07-08T01:50:23;4.25;;;3.35;;
64099;SDS011;50385;61.766;38.054;2023-07-08T01:52:52;3.80;;;3.10;;
64099;SDS011;50385;61.766;38.054;2023-07-08T01:55:23;3.35;;;3.05;;
64099;SDS011;50385;61.766;38.054;2023-07-08T01:57:51;4.70;;;3.00;;
64099;SDS011;50385;61.766;38.054;2023-07-08T02:00:21;3.55;;;3.03;;
64099;SDS011;50385;61.766;38.054;2023-07-08T02:02:49;4.25;;;3.20;;
64099;SDS011;50385;61.766;38.054;2023-07-08T02:05:17;5.15;;;3.17;;
64099;SDS011;50385;61.766;38.054;2023-07-08T02:07:44;3.63;;;3.13;;
64099;SDS011;50385;61.766;38.054;2023-07-08T02:10:11;3.35;;;2.72;;
64099;SDS011;50385;61.766;38.054;2023-07-08T02:12:38;5.85;;;2.83;;
64099;SDS011;50385;61.766;38.054;2023-07-08T02:15:05;4.30;;;2.75;;
64099;SDS011;50385;61.766;38.054;2023-07-08T02:17:33;4.00;;;2.70;;
64099;SDS011;50385;61.766;38.054;2023-07-08T02:20:03;7.13;;;2.78;;
64099;SDS011;50385;61.766;38.054;2023-07-08T02:22:31;4.15;;;3.00;;
64099;SDS011;50385;61.766;38.054;2023-07-08T02:24:58;3.67;;;2.85;;
64099;SDS011;50385;61.766;38.054;2023-07-08T02:27:25;3.15;;;2.83;;
64099;SDS011;50385;61.766;38.054;2023-07-08T02:29:52;4.50;;;2.80;;
64099;SDS011;50385;61.766;38.054;2023-07-08T02:32:19;4.05;;;3.08;;
64099;SDS011;50385;61.766;38.054;2023-07-08T02:34:46;4.20;;;2.97;;
64099;SDS011;50385;61.766;38.054;2023-07-08T02:37:13;3.25;;;2.72;;
64099;SDS011;50385;61.766;38.054;2023-07-08T02:39:40;3.50;;;2.75;;
64099;SDS011;50385;61.766;38.054;2023-07-08T02:42:07;6.88;;;2.75;;
64099;SDS011;50385;61.766;38.054;2023-07-08T02:44:34;3.78;;;2.75;;
64099;SDS011;50385;61.766;38.054;2023-07-08T02:47:01;4.78;;;2.97;;
64099;SDS011;50385;61.766;38.054;2023-07-08T02:49:29;4.70;;;2.88;;
64099;SDS011;50385;61.766;38.054;2023-07-08T02:51:56;7.63;;;2.55;;
64099;SDS011;50385;61.766;38.054;2023-07-08T02:54:23;2.72;;;2.50;;
64099;SDS011;50385;61.766;38.054;2023-07-08T02:56:50;7.65;;;2.85;;
64099;SDS011;50385;61.766;38.054;2023-07-08T02:59:17;3.00;;;2.70;;
64099;SDS011;50385;61.766;38.054;2023-07-08T03:01:44;7.00;;;2.47;;
64099;SDS011;50385;61.766;38.054;2023-07-08T03:04:13;4.70;;;2.58;;
64099;SDS011;50385;61.766;38.054;2023-07-08T03:06:43;7.63;;;2.88;;
64099;SDS011;50385;61.766;38.054;2023-07-08T03:09:11;4.72;;;2.90;;
64099;SDS011;50385;61.766;38.054;2023-07-08T03:11:39;8.10;;;2.95;;
64099;SDS011;50385;61.766;38.054;2023-07-08T03:14:06;4.72;;;2.70;;
64099;SDS011;50385;61.766;38.054;2023-07-08T03:16:33;2.67;;;2.47;;
64099;SDS011;50385;61.766;38.054;2023-07-08T03:19:00;7.32;;;2.90;;
64099;SDS011;50385;61.766;38.054;2023-07-08T03:21:28;2.95;;;2.75;;
64099;SDS011;50385;61.766;38.054;2023-07-08T03:23:56;5.25;;;2.70;;
64099;SDS011;50385;61.766;38.054;2023-07-08T03:26:24;2.60;;;2.40;;
64099;SDS011;50385;61.766;38.054;2023-07-08T03:28:54;6.80;;;2.75;;
64099;SDS011;50385;61.766;38.054;2023-07-08T03:31:21;2.35;;;2.15;;
64099;SDS011;50385;61.766;38.054;2023-07-08T03:33:49;4.70;;;2.55;;
64099;SDS011;50385;61.766;38.054;2023-07-08T03:36:17;2.80;;;2.50;;
64099;SDS011;50385;61.766;38.054;2023-07-08T03:38:51;4.88;;;2.50;;
64099;SDS011;50385;61.766;38.054;2023-07-08T03:41:20;2.88;;;2.60;;
64099;SDS011;50385;61.766;38.054;2023-07-08T03:43:52;3.05;;;2.40;;
64099;SDS011;50385;61.766;38.054;2023-07-08T03:46:20;7.32;;;2.35;;
64099;SDS011;50385;61.766;38.054;2023-07-08T03:48:51;5.43;;;2.75;;
64099;SDS011;50385;61.766;38.054;2023-07-08T03:51:26;18.42;;;3.65;;
64099;SDS011;50385;61.766;38.054;2023-07-08T03:53:56;7.97;;;3.50;;
64099;SDS011;50385;61.766;38.054;2023-07-08T03:56:25;6.43;;;3.20;;
64099;SDS011;50385;61.766;38.054;2023-07-08T03:58:51;14.07;;;4.47;;
64099;SDS011;50385;61.766;38.054;2023-07-08T04:01:19;9.73;;;3.90;;
64099;SDS011;50385;61.766;38.054;2023-07-08T04:03:47;7.78;;;3.17;;
64099;SDS011;50385;61.766;38.054;2023-07-08T04:06:14;10.70;;;3.55;;
64099;SDS011;50385;61.766;38.054;2023-07-08T04:08:41;8.18;;;2.97;;
64099;SDS011;50385;61.766;38.054;2023-07-08T04:11:11;8.57;;;3.83;;
64099;SDS011;50385;61.766;38.054;2023-07-08T04:13:40;9.05;;;3.70;;
64099;SDS011;50385;61.766;38.054;2023-07-08T04:16:07;7.18;;;3.40;;
64099;SDS011;50385;61.766;38.054;2023-07-08T04:18:36;8.57;;;2.80;;
64099;SDS011;50385;61.766;38.054;2023-07-08T04:21:03;10.18;;;3.13;;
64099;SDS011;50385;61.766;38.054;2023-07-08T04:23:29;3.67;;;2.55;;
64099;SDS011;50385;61.766;38.054;2023-07-08T04:25:56;7.00;;;2.90;;
64099;SDS011;50385;61.766;38.054;2023-07-08T04:28:23;6.13;;;2.80;;
64099;SDS011;50385;61.766;38.054;2023-07-08T04:30:50;19.65;;;7.22;;
64099;SDS011;50385;61.766;38.054;2023-07-08T04:33:17;7.97;;;3.42;;
64099;SDS011;50385;61.766;38.054;2023-07-08T04:35:44;5.60;;;3.40;;
64099;SDS011;50385;61.766;38.054;2023-07-08T04:38:21;8.68;;;3.60;;
64099;SDS011;50385;61.766;38.054;2023-07-08T04:40:49;10.02;;;3.60;;
64099;SDS011;50385;61.766;38.054;2023-07-08T04:43:17;5.85;;;3.85;;
64099;SDS011;50385;61.766;38.054;2023-07-08T04:45:48;7.07;;;3.85;;
64099;SDS011;50385;61.766;38.054;2023-07-08T04:48:18;7.53;;;3.92;;
64099;SDS011;50385;61.766;38.054;2023-07-08T04:50:48;12.15;;;5.07;;
64099;SDS011;50385;61.766;38.054;2023-07-08T04:53:16;10.73;;;4.10;;
64099;SDS011;50385;61.766;38.054;2023-07-08T04:58:12;5.32;;;3.78;;
64099;SDS011;50385;61.766;38.054;2023-07-08T05:00:39;6.10;;;3.55;;
64099;SDS011;50385;61.766;38.054;2023-07-08T05:03:06;7.45;;;3.85;;
64099;SDS011;50385;61.766;38.054;2023-07-08T05:05:33;3.95;;;3.47;;
64099;SDS011;50385;61.766;38.054;2023-07-08T05:08:00;6.45;;;3.88;;
64099;SDS011;50385;61.766;38.054;2023-07-08T05:10:27;9.00;;;3.55;;
64099;SDS011;50385;61.766;38.054;2023-07-08T05:12:54;10.93;;;3.55;;
64099;SDS011;50385;61.766;38.054;2023-07-08T05:15:21;8.52;;;4.07;;
64099;SDS011;50385;61.766;38.054;2023-07-08T05:17:49;8.20;;;3.58;;
64099;SDS011;50385;61.766;38.054;2023-07-08T05:20:17;12.07;;;3.13;;
64099;SDS011;50385;61.766;38.054;2023-07-08T05:22:45;6.88;;;3.70;;
64099;SDS011;50385;61.766;38.054;2023-07-08T05:25:12;7.03;;;3.33;;
64099;SDS011;50385;61.766;38.054;2023-07-08T05:27:40;8.02;;;3.38;;
64099;SDS011;50385;61.766;38.054;2023-07-08T05:30:09;6.40;;;3.00;;
64099;SDS011;50385;61.766;38.054;2023-07-08T05:32:41;9.93;;;3.33;;
64099;SDS011;50385;61.766;38.054;2023-07-08T05:35:08;5.88;;;3.42;;
64099;SDS011;50385;61.766;38.054;2023-07-08T05:37:35;4.63;;;3.08;;
64099;SDS011;50385;61.766;38.054;2023-07-08T05:40:02;9.07;;;2.90;;
64099;SDS011;50385;61.766;38.054;2023-07-08T05:42:31;9.68;;;3.00;;
64099;SDS011;50385;61.766;38.054;2023-07-08T05:44:58;4.18;;;2.70;;
64099;SDS011;50385;61.766;38.054;2023-07-08T05:47:25;6.32;;;3.47;;
64099;SDS011;50385;61.766;38.054;2023-07-08T05:49:52;8.63;;;2.80;;
64099;SDS011;50385;61.766;38.054;2023-07-08T05:55:30;10.02;;;5.50;;
64099;SDS011;50385;61.766;38.054;2023-07-08T05:58:04;2.95;;;2.53;;
64099;SDS011;50385;61.766;38.054;2023-07-08T06:00:31;5.18;;;2.30;;
64099;SDS011;50385;61.766;38.054;2023-07-08T06:03:01;6.75;;;2.47;;
64099;SDS011;50385;61.766;38.054;2023-07-08T06:05:28;3.50;;;2.58;;
64099;SDS011;50385;61.766;38.054;2023-07-08T06:07:55;4.32;;;2.72;;
64099;SDS011;50385;61.766;38.054;2023-07-08T06:10:22;4.03;;;2.45;;
64099;SDS011;50385;61.766;38.054;2023-07-08T06:12:49;2.75;;;2.20;;
64099;SDS011;50385;61.766;38.054;2023-07-08T06:15:17;10.02;;;2.30;;
64099;SDS011;50385;61.766;38.054;2023-07-08T06:17:44;4.53;;;2.88;;
64099;SDS011;50385;61.766;38.054;2023-07-08T06:20:10;6.50;;;2.00;;
64099;SDS011;50385;61.766;38.054;2023-07-08T06:22:38;2.28;;;2.08;;
64099;SDS011;50385;61.766;38.054;2023-07-08T06:25:05;2.25;;;1.70;;
64099;SDS011;50385;61.766;38.054;2023-07-08T06:27:32;3.40;;;2.03;;
64099;SDS011;50385;61.766;38.054;2023-07-08T06:29:59;2.20;;;1.65;;
64099;SDS011;50385;61.766;38.054;2023-07-08T06:32:26;9.13;;;1.90;;
64099;SDS011;50385;61.766;38.054;2023-07-08T06:34:53;6.20;;;2.00;;
64099;SDS011;50385;61.766;38.054;2023-07-08T06:37:21;2.08;;;1.83;;
64099;SDS011;50385;61.766;38.054;2023-07-08T06:39:48;2.50;;;1.83;;
64099;SDS011;50385;61.766;38.054;2023-07-08T06:42:14;6.82;;;2.10;;
64099;SDS011;50385;61.766;38.054;2023-07-08T06:44:48;2.95;;;1.98;;
64099;SDS011;50385;61.766;38.054;2023-07-08T06:47:18;4.40;;;2.17;;
64099;SDS011;50385;61.766;38.054;2023-07-08T06:49:49;2.67;;;2.00;;
64099;SDS011;50385;61.766;38.054;2023-07-08T06:52:16;3.58;;;1.90;;
64099;SDS011;50385;61.766;38.054;2023-07-08T06:54:43;2.50;;;1.70;;
64099;SDS011;50385;61.766;38.054;2023-07-08T06:57:17;2.22;;;1.77;;
64099;SDS011;50385;61.766;38.054;2023-07-08T06:59:46;3.03;;;1.63;;
64099;SDS011;50385;61.766;38.054;2023-07-08T07:02:25;3.00;;;1.70;;
64099;SDS011;50385;61.766;38.054;2023-07-08T07:04:52;1.77;;;1.65;;
64099;SDS011;50385;61.766;38.054;2023-07-08T07:07:21;2.53;;;1.70;;
64099;SDS011;50385;61.766;38.054;2023-07-08T07:09:48;2.53;;;1.63;;
64099;SDS011;50385;61.766;38.054;2023-07-08T07:12:24;4.75;;;1.75;;
64099;SDS011;50385;61.766;38.054;2023-07-08T07:14:58;3.15;;;1.50;;
64099;SDS011;50385;61.766;38.054;2023-07-08T07:17:25;2.30;;;1.70;;
64099;SDS011;50385;61.766;38.054;2023-07-08T07:19:53;5.03;;;1.80;;
64099;SDS011;50385;61.766;38.054;2023-07-08T07:22:20;2.80;;;1.75;;
64099;SDS011;50385;61.766;38.054;2023-07-08T07:24:48;2.80;;;1.60;;
64099;SDS011;50385;61.766;38.054;2023-07-08T07:27:15;4.95;;;3.05;;
64099;SDS011;50385;61.766;38.054;2023-07-08T07:29:43;2.35;;;1.65;;
64099;SDS011;50385;61.766;38.054;2023-07-08T07:32:11;3.50;;;1.80;;
64099;SDS011;50385;61.766;38.054;2023-07-08T07:34:39;2.90;;;1.80;;
64099;SDS011;50385;61.766;38.054;2023-07-08T07:37:16;6.00;;;1.42;;
64099;SDS011;50385;61.766;38.054;2023-07-08T07:39:44;2.55;;;1.60;;
64099;SDS011;50385;61.766;38.054;2023-07-08T07:42:13;4.15;;;2.20;;
64099;SDS011;50385;61.766;38.054;2023-07-08T07:44:42;7.60;;;1.90;;
64099;SDS011;50385;61.766;38.054;2023-07-08T07:47:09;2.78;;;1.80;;
64099;SDS011;50385;61.766;38.054;2023-07-08T07:49:36;2.50;;;1.45;;
64099;SDS011;50385;61.766;38.054;2023-07-08T07:52:09;1.80;;;1.50;;
64099;SDS011;50385;61.766;38.054;2023-07-08T07:54:37;5.05;;;2.10;;
64099;SDS011;50385;61.766;38.054;2023-07-08T07:57:05;4.78;;;1.83;;
64099;SDS011;50385;61.766;38.054;2023-07-08T07:59:32;4.45;;;1.52;;
64099;SDS011;50385;61.766;38.054;2023-07-08T08:01:59;3.00;;;1.70;;
64099;SDS011;50385;61.766;38.054;2023-07-08T08:04:28;3.25;;;1.40;;
64099;SDS011;50385;61.766;38.054;2023-07-08T08:06:55;15.15;;;4.38;;
64099;SDS011;50385;61.766;38.054;2023-07-08T08:09:22;3.08;;;1.75;;
64099;SDS011;50385;61.766;38.054;2023-07-08T08:11:49;6.80;;;2.28;;
64099;SDS011;50385;61.766;38.054;2023-07-08T08:14:18;8.35;;;2.40;;
64099;SDS011;50385;61.766;38.054;2023-07-08T08:16:45;6.82;;;2.25;;
64099;SDS011;50385;61.766;38.054;2023-07-08T08:19:12;3.45;;;2.10;;
64099;SDS011;50385;61.766;38.054;2023-07-08T08:21:39;3.97;;;1.90;;
64099;SDS011;50385;61.766;38.054;2023-07-08T08:24:09;4.20;;;2.10;;
64099;SDS011;50385;61.766;38.054;2023-07-08T08:26:39;10.73;;;2.10;;
64099;SDS011;50385;61.766;38.054;2023-07-08T08:29:10;3.15;;;2.00;;
64099;SDS011;50385;61.766;38.054;2023-07-08T08:31:37;13.73;;;1.77;;
64099;SDS011;50385;61.766;38.054;2023-07-08T08:34:11;4.38;;;2.05;;
64099;SDS011;50385;61.766;38.054;2023-07-08T08:36:39;3.38;;;1.65;;
64099;SDS011;50385;61.766;38.054;2023-07-08T08:39:09;1.60;;;1.50;;
64099;SDS011;50385;61.766;38.054;2023-07-08T08:41:40;2.45;;;1.83;;
64099;SDS011;50385;61.766;38.054;2023-07-08T08:44:14;2.95;;;1.95;;
64099;SDS011;50385;61.766;38.054;2023-07-08T08:46:51;6.93;;;2.28;;
64099;SDS011;50385;61.766;38.054;2023-07-08T08:49:25;3.60;;;1.58;;
64099;SDS011;50385;61.766;38.054;2023-07-08T08:51:54;3.65;;;1.67;;
64099;SDS011;50385;61.766;38.054;2023-07-08T08:54:21;2.00;;;1.60;;
64099;SDS011;50385;61.766;38.054;2023-07-08T08:59:43;2.33;;;1.77;;
64099;SDS011;50385;61.766;38.054;2023-07-08T09:05:14;3.45;;;1.58;;
64099;SDS011;50385;61.766;38.054;2023-07-08T09:13:22;2.40;;;1.85;;
64099;SDS011;50385;61.766;38.054;2023-07-08T09:15:57;6.15;;;1.90;;
64099;SDS011;50385;61.766;38.054;2023-07-08T09:18:30;3.45;;;2.00;;
64099;SDS011;50385;61.766;38.054;2023-07-08T09:21:01;2.50;;;1.70;;
64099;SDS011;50385;61.766;38.054;2023-07-08T09:23:41;4.38;;;2.17;;
64099;SDS011;50385;61.766;38.054;2023-07-08T09:26:10;3.97;;;1.90;;
64099;SDS011;50385;61.766;38.054;2023-07-08T09:28:43;2.47;;;1.88;;
64099;SDS011;50385;61.766;38.054;2023-07-08T09:31:24;3.30;;;1.50;;
64099;SDS011;50385;61.766;38.054;2023-07-08T09:34:12;1.63;;;1.52;;
64099;SDS011;50385;61.766;38.054;2023-07-08T09:36:47;4.50;;;1.65;;
64099;SDS011;50385;61.766;38.054;2023-07-08T09:39:16;3.60;;;1.88;;
64099;SDS011;50385;61.766;38.054;2023-07-08T09:41:45;3.30;;;1.63;;
64099;SDS011;50385;61.766;38.054;2023-07-08T09:46:41;3.95;;;1.67;;
64099;SDS011;50385;61.766;38.054;2023-07-08T09:51:51;2.88;;;1.80;;
64099;SDS011;50385;61.766;38.054;2023-07-08T09:54:19;2.47;;;1.92;;
64099;SDS011;50385;61.766;38.054;2023-07-08T09:59:39;2.17;;;1.55;;
64099;SDS011;50385;61.766;38.054;2023-07-08T10:02:31;8.70;;;1.70;;
64099;SDS011;50385;61.766;38.054;2023-07-08T10:05:07;2.83;;;1.80;;
64099;SDS011;50385;61.766;38.054;2023-07-08T10:07:48;3.38;;;2.10;;
64099;SDS011;50385;61.766;38.054;2023-07-08T10:10:22;2.97;;;2.00;;
64099;SDS011;50385;61.766;38.054;2023-07-08T10:12:56;2.75;;;1.50;;
64099;SDS011;50385;61.766;38.054;2023-07-08T10:15:32;1.60;;;1.50;;
64099;SDS011;50385;61.766;38.054;2023-07-08T10:18:03;1.50;;;1.40;;
64099;SDS011;50385;61.766;38.054;2023-07-08T10:20:35;2.58;;;1.65;;
64099;SDS011;50385;61.766;38.054;2023-07-08T10:23:22;6.78;;;1.90;;
64099;SDS011;50385;61.766;38.054;2023-07-08T10:26:24;7.20;;;2.30;;
64099;SDS011;50385;61.766;38.054;2023-07-08T10:29:40;10.52;;;5.85;;
64099;SDS011;50385;61.766;38.054;2023-07-08T10:32:21;13.68;;;8.95;;
64099;SDS011;50385;61.766;38.054;2023-07-08T10:40:36;6.63;;;4.30;;
64099;SDS011;50385;61.766;38.054;2023-07-08T10:46:04;3.83;;;2.15;;
64099;SDS011;50385;61.766;38.054;2023-07-08T10:51:46;2.00;;;1.80;;
64099;SDS011;50385;61.766;38.054;2023-07-08T10:54:22;3.00;;;1.80;;
64099;SDS011;50385;61.766;38.054;2023-07-08T10:57:14;2.28;;;1.70;;
64099;SDS011;50385;61.766;38.054;2023-07-08T11:02:46;1.80;;;1.40;;
64099;SDS011;50385;61.766;38.054;2023-07-08T11:10:40;1.67;;;1.50;;
64099;SDS011;50385;61.766;38.054;2023-07-08T11:13:27;3.75;;;1.48;;
64099;SDS011;50385;61.766;38.054;2023-07-08T11:19:10;1.98;;;1.38;;
64099;SDS011;50385;61.766;38.054;2023-07-08T11:21:54;1.45;;;1.35;;
64099;SDS011;50385;61.766;38.054;2023-07-08T11:24:27;2.03;;;1.30;;
64099;SDS011;50385;61.766;38.054;2023-07-08T11:27:00;1.42;;;1.30;;
64099;SDS011;50385;61.766;38.054;2023-07-08T11:29:40;3.08;;;1.38;;
64099;SDS011;50385;61.766;38.054;2023-07-08T11:32:13;1.52;;;1.33;;
64099;SDS011;50385;61.766;38.054;2023-07-08T11:34:43;1.52;;;1.42;;
64099;SDS011;50385;61.766;38.054;2023-07-08T11:37:13;2.70;;;1.50;;
64099;SDS011;50385;61.766;38.054;2023-07-08T11:39:46;3.03;;;1.45;;
64099;SDS011;50385;61.766;38.054;2023-07-08T11:44:51;1.80;;;1.42;;
64099;SDS011;50385;61.766;38.054;2023-07-08T11:47:35;1.70;;;1.35;;
64099;SDS011;50385;61.766;38.054;2023-07-08T11:50:08;1.50;;;1.40;;
64099;SDS011;50385;61.766;38.054;2023-07-08T11:53:09;1.35;;;1.25;;
64099;SDS011;50385;61.766;38.054;2023-07-08T11:55:37;3.42;;;1.23;;
64099;SDS011;50385;61.766;38.054;2023-07-08T11:58:13;1.80;;;1.30;;
64099;SDS011;50385;61.766;38.054;2023-07-08T12:00:43;4.72;;;1.20;;
64099;SDS011;50385;61.766;38.054;2023-07-08T12:03:49;4.63;;;1.48;;
64099;SDS011;50385;61.766;38.054;2023-07-08T12:07:03;1.55;;;1.02;;
64099;SDS011;50385;61.766;38.054;2023-07-08T12:09:14;1.52;;;1.40;;
64099;SDS011;50385;61.766;38.054;2023-07-08T12:12:03;2.08;;;1.60;;
64099;SDS011;50385;61.766;38.054;2023-07-08T12:14:33;2.63;;;1.50;;
64099;SDS011;50385;61.766;38.054;2023-07-08T12:17:13;1.55;;;1.45;;
64099;SDS011;50385;61.766;38.054;2023-07-08T12:22:53;1.40;;;1.30;;
64099;SDS011;50385;61.766;38.054;2023-07-08T12:25:23;1.60;;;1.40;;
64099;SDS011;50385;61.766;38.054;2023-07-08T12:27:54;1.98;;;1.25;;
64099;SDS011;50385;61.766;38.054;2023-07-08T12:30:30;1.40;;;1.30;;
64099;SDS011;50385;61.766;38.054;2023-07-08T12:36:06;1.08;;;1.08;;
64099;SDS011;50385;61.766;38.054;2023-07-08T12:38:40;2.67;;;1.33;;
64099;SDS011;50385;61.766;38.054;2023-07-08T12:41:18;1.20;;;1.10;;
64099;SDS011;50385;61.766;38.054;2023-07-08T12:43:47;1.17;;;1.08;;
64099;SDS011;50385;61.766;38.054;2023-07-08T12:46:16;1.60;;;1.20;;
64099;SDS011;50385;61.766;38.054;2023-07-08T12:48:44;1.25;;;1.15;;
64099;SDS011;50385;61.766;38.054;2023-07-08T12:51:32;3.05;;;1.52;;
64099;SDS011;50385;61.766;38.054;2023-07-08T12:53:58;1.77;;;1.23;;
64099;SDS011;50385;61.766;38.054;2023-07-08T12:56:25;5.97;;;1.30;;
64099;SDS011;50385;61.766;38.054;2023-07-08T12:58:59;5.18;;;1.25;;
64099;SDS011;50385;61.766;38.054;2023-07-08T13:01:29;1.45;;;1.35;;
64099;SDS011;50385;61.766;38.054;2023-07-08T13:04:02;2.45;;;1.40;;
64099;SDS011;50385;61.766;38.054;2023-07-08T13:06:31;2.40;;;1.25;;
64099;SDS011;50385;61.766;38.054;2023-07-08T13:12:15;7.38;;;1.42;;
64099;SDS011;50385;61.766;38.054;2023-07-08T13:14:44;4.25;;;1.40;;
64099;SDS011;50385;61.766;38.054;2023-07-08T13:17:14;1.33;;;1.23;;
64099;SDS011;50385;61.766;38.054;2023-07-08T13:19:51;2.45;;;1.60;;
64099;SDS011;50385;61.766;38.054;2023-07-08T13:22:20;4.03;;;1.38;;
64099;SDS011;50385;61.766;38.054;2023-07-08T13:24:48;1.30;;;1.20;;
64099;SDS011;50385;61.766;38.054;2023-07-08T13:27:25;1.25;;;1.15;;
64099;SDS011;50385;61.766;38.054;2023-07-08T13:29:54;3.50;;;1.48;;
64099;SDS011;50385;61.766;38.054;2023-07-08T13:32:30;1.33;;;1.23;;
64099;SDS011;50385;61.766;38.054;2023-07-08T13:34:58;3.90;;;1.50;;
64099;SDS011;50385;61.766;38.054;2023-07-08T13:37:26;2.00;;;1.30;;
64099;SDS011;50385;61.766;38.054;2023-07-08T13:39:58;1.50;;;1.40;;
64099;SDS011;50385;61.766;38.054;2023-07-08T13:52:54;1.77;;;1.40;;
64099;SDS011;50385;61.766;38.054;2023-07-08T13:55:22;1.42;;;1.30;;
64099;SDS011;50385;61.766;38.054;2023-07-08T13:57:58;3.53;;;1.60;;
64099;SDS011;50385;61.766;38.054;2023-07-08T14:00:30;1.30;;;1.20;;
64099;SDS011;50385;61.766;38.054;2023-07-08T14:02:57;3.88;;;1.90;;
64099;SDS011;50385;61.766;38.054;2023-07-08T14:05:24;4.68;;;1.85;;
64099;SDS011;50385;61.766;38.054;2023-07-08T14:07:53;2.10;;;1.90;;
64099;SDS011;50385;61.766;38.054;2023-07-08T14:10:23;3.90;;;2.00;;
64099;SDS011;50385;61.766;38.054;2023-07-08T14:12:54;2.03;;;1.92;;
64099;SDS011;50385;61.766;38.054;2023-07-08T14:15:21;7.18;;;1.90;;
64099;SDS011;50385;61.766;38.054;2023-07-08T14:17:48;2.30;;;2.03;;
64099;SDS011;50385;61.766;38.054;2023-07-08T14:20:19;2.95;;;2.50;;
64099;SDS011;50385;61.766;38.054;2023-07-08T14:22:49;2.65;;;2.40;;
64099;SDS011;50385;61.766;38.054;2023-07-08T14:25:17;2.28;;;1.83;;
64099;SDS011;50385;61.766;38.054;2023-07-08T14:27:47;2.60;;;2.38;;
64099;SDS011;50385;61.766;38.054;2023-07-08T14:30:13;2.08;;;1.88;;
64099;SDS011;50385;61.766;38.054;2023-07-08T14:32:43;2.20;;;2.00;;
64099;SDS011;50385;61.766;38.054;2023-07-08T14:35:17;2.58;;;2.35;;
64099;SDS011;50385;61.766;38.054;2023-07-08T14:37:48;9.13;;;2.40;;
64099;SDS011;50385;61.766;38.054;2023-07-08T14:40:32;2.58;;;2.17;;
64099;SDS011;50385;61.766;38.054;2023-07-08T14:43:01;5.00;;;2.08;;
64099;SDS011;50385;61.766;38.054;2023-07-08T14:45:49;2.30;;;2.10;;
64099;SDS011;50385;61.766;38.054;2023-07-08T14:48:17;2.40;;;2.15;;
64099;SDS011;50385;61.766;38.054;2023-07-08T14:50:44;3.20;;;2.40;;
64099;SDS011;50385;61.766;38.054;2023-07-08T14:53:14;2.20;;;2.00;;
64099;SDS011;50385;61.766;38.054;2023-07-08T14:55:43;2.88;;;2.33;;
64099;SDS011;50385;61.766;38.054;2023-07-08T14:58:45;3.42;;;2.45;;
64099;SDS011;50385;61.766;38.054;2023-07-08T15:01:08;2.72;;;2.25;;
64099;SDS011;50385;61.766;38.054;2023-07-08T15:03:37;4.75;;;2.28;;
64099;SDS011;50385;61.766;38.054;2023-07-08T15:06:08;3.85;;;2.30;;
64099;SDS011;50385;61.766;38.054;2023-07-08T15:08:36;2.03;;;1.83;;
64099;SDS011;50385;61.766;38.054;2023-07-08T15:11:04;3.83;;;2.15;;
64099;SDS011;50385;61.766;38.054;2023-07-08T15:13:33;2.20;;;1.80;;
64099;SDS011;50385;61.766;38.054;2023-07-08T15:16:01;2.90;;;2.10;;
64099;SDS011;50385;61.766;38.054;2023-07-08T15:18:28;1.70;;;1.60;;
64099;SDS011;50385;61.766;38.054;2023-07-08T15:20:54;2.20;;;1.85;;
64099;SDS011;50385;61.766;38.054;2023-07-08T15:23:21;1.83;;;1.70;;
64099;SDS011;50385;61.766;38.054;2023-07-08T15:25:48;2.05;;;1.85;;
64099;SDS011;50385;61.766;38.054;2023-07-08T15:28:20;7.43;;;2.22;;
64099;SDS011;50385;61.766;38.054;2023-07-08T15:31:01;6.30;;;2.50;;
64099;SDS011;50385;61.766;38.054;2023-07-08T15:33:29;2.25;;;1.70;;
64099;SDS011;50385;61.766;38.054;2023-07-08T15:35:58;5.13;;;2.08;;
64099;SDS011;50385;61.766;38.054;2023-07-08T15:38:27;2.78;;;2.28;;
64099;SDS011;50385;61.766;38.054;2023-07-08T15:40:53;1.85;;;1.52;;
64099;SDS011;50385;61.766;38.054;2023-07-08T15:43:20;2.63;;;1.95;;
64099;SDS011;50385;61.766;38.054;2023-07-08T15:45:47;2.58;;;2.10;;
64099;SDS011;50385;61.766;38.054;2023-07-08T15:48:15;5.15;;;1.83;;
64099;SDS011;50385;61.766;38.054;2023-07-08T15:50:42;4.53;;;2.15;;
64099;SDS011;50385;61.766;38.054;2023-07-08T15:53:10;2.88;;;2.08;;
64099;SDS011;50385;61.766;38.054;2023-07-08T15:55:38;2.97;;;1.98;;
64099;SDS011;50385;61.766;38.054;2023-07-08T15:58:08;5.70;;;2.85;;
64099;SDS011;50385;61.766;38.054;2023-07-08T16:00:38;2.28;;;1.90;;
64099;SDS011;50385;61.766;38.054;2023-07-08T16:03:06;2.15;;;1.95;;
64099;SDS011;50385;61.766;38.054;2023-07-08T16:05:36;4.88;;;1.90;;
64099;SDS011;50385;61.766;38.054;2023-07-08T16:08:03;1.70;;;1.60;;